Time;durP1;ratioP1;P1;durP2;ratioP2;P2;SDS_P1;SDS_P2;PMS_P1;PMS_P2;Temp;Humidity;BMP_temperature;BMP_pressure;BME280_temperature;BME280_humidity;BME280_pressure;Samples;Min_cycle;Max_cycle;Signal;HPM_P1;HPM_P2
2022/08/25 00:01:30;;;;;;;;;13.25;12.75;;;;;26.14;42.98;100806.41;5094414;27;45530;-61
2022/08/25 00:03:56;;;;;;;;;12.50;11.50;;;;;26.11;43.42;100807.63;5094352;27;45325;-59
2022/08/25 00:06:22;;;;;;;;;15.00;15.00;;;;;26.09;43.08;100808.84;5095544;27;46258;-61
2022/08/25 00:08:48;;;;;;;;;14.00;14.00;;;;;26.06;42.99;100814.69;5096397;27;45477;-63
2022/08/25 00:11:19;;;;;;;;;17.00;15.25;;;;;26.02;43.78;100814.16;5096028;27;45396;-64
2022/08/25 00:13:47;;;;;;;;;17.50;13.25;;;;;25.96;43.63;100809.47;5096475;27;45173;-57
2022/08/25 00:16:15;;;;;;;;;18.75;15.50;;;;;25.99;43.50;100814.53;5094512;27;45465;-58
2022/08/25 00:18:47;;;;;;;;;14.50;13.00;;;;;26.01;44.22;100814.34;5093610;27;45610;-59
2022/08/25 00:21:14;;;;;;;;;13.75;13.25;;;;;25.97;43.41;100810.31;5096316;27;45252;-61
2022/08/25 00:23:40;;;;;;;;;15.00;13.00;;;;;25.93;43.53;100803.53;5095698;27;45418;-60
2022/08/25 00:26:07;;;;;;;;;12.75;12.75;;;;;25.91;43.78;100802.84;5095838;27;46668;-62
2022/08/25 00:28:33;;;;;;;;;15.50;12.25;;;;;25.88;43.67;100791.28;5094584;27;45261;-61
2022/08/25 00:31:00;;;;;;;;;16.75;14.75;;;;;25.81;44.28;100789.47;5096204;27;45351;-62
2022/08/25 00:33:25;;;;;;;;;15.25;13.00;;;;;25.78;44.09;100790.69;5095601;27;45242;-60
2022/08/25 00:35:51;;;;;;;;;12.25;12.25;;;;;25.72;44.39;100785.94;5094499;27;46203;-61
2022/08/25 00:38:17;;;;;;;;;12.75;12.75;;;;;25.72;43.72;100785.94;5098663;27;45373;-60
2022/08/25 00:40:44;;;;;;;;;15.00;13.50;;;;;25.67;43.73;100784.75;5099022;27;45374;-59
2022/08/25 00:43:10;;;;;;;;;14.25;14.25;;;;;25.69;43.78;100791.75;5100052;27;45520;-59
2022/08/25 00:45:39;;;;;;;;;13.25;11.75;;;;;25.65;44.00;100781.34;5099261;27;46253;-56
2022/08/25 00:48:05;;;;;;;;;15.00;12.50;;;;;25.64;44.37;100780.50;5099772;27;45213;-60
2022/08/25 00:50:33;;;;;;;;;12.25;12.25;;;;;25.60;44.15;100779.16;5107760;27;45230;-59
2022/08/25 00:53:02;;;;;;;;;15.25;13.75;;;;;25.59;44.38;100780.19;5120389;27;45491;-60
2022/08/25 00:55:39;;;;;;;;;15.50;14.00;;;;;25.56;44.52;100784.13;5117870;27;46240;-61
2022/08/25 00:58:12;;;;;;;;;13.00;13.00;;;;;25.55;44.56;100773.41;5119898;27;45371;-58
2022/08/25 01:00:42;;;;;;;;;11.75;10.75;;;;;25.54;44.10;100771.72;5119232;27;45491;-59
2022/08/25 01:03:08;;;;;;;;;12.25;12.25;;;;;25.53;44.32;100767.31;5120126;27;45260;-58
2022/08/25 01:05:34;;;;;;;;;12.75;12.75;;;;;25.50;44.17;100773.09;5118943;27;45447;-57
2022/08/25 01:08:04;;;;;;;;;13.50;13.50;;;;;25.45;44.43;100768.19;5118300;27;45378;-62
2022/08/25 01:10:32;;;;;;;;;14.00;10.75;;;;;25.41;44.71;100780.47;5116175;27;45189;-60
2022/08/25 01:13:04;;;;;;;;;14.00;14.00;;;;;25.42;44.66;100779.44;5119247;27;45331;-58
2022/08/25 01:15:30;;;;;;;;;13.25;13.25;;;;;25.42;44.67;100778.59;5118336;27;47366;-62
2022/08/25 01:17:56;;;;;;;;;14.25;11.00;;;;;25.39;44.78;100778.94;5116654;27;47080;-62
2022/08/25 01:20:25;;;;;;;;;13.50;10.75;;;;;25.38;44.71;100777.22;5119280;27;45416;-62
2022/08/25 01:22:50;;;;;;;;;13.25;12.25;;;;;25.41;45.00;100776.91;5119870;27;45518;-60
2022/08/25 01:25:23;;;;;;;;;12.00;12.00;;;;;25.39;44.90;100784.38;5118950;27;45382;-62
2022/08/25 01:27:49;;;;;;;;;11.75;10.75;;;;;25.38;44.83;100785.41;5119035;27;45367;-60
2022/08/25 01:30:14;;;;;;;;;12.25;11.75;;;;;25.37;45.04;100790.00;5119079;27;45591;-60
2022/08/25 01:32:40;;;;;;;;;13.50;13.50;;;;;25.35;45.08;100786.59;5119593;27;45527;-61
2022/08/25 01:35:05;;;;;;;;;15.00;13.75;;;;;25.36;44.97;100774.69;5118404;27;47103;-65
2022/08/25 01:37:34;;;;;;;;;12.50;12.50;;;;;25.36;44.96;100784.72;5118891;27;45487;-61
2022/08/25 01:39:59;;;;;;;;;20.00;15.00;;;;;25.35;44.99;100777.59;5119298;27;45295;-63
2022/08/25 01:42:47;;;;;;;;;12.25;12.25;;;;;25.33;45.26;100771.47;5117309;27;45409;-63
2022/08/25 01:45:13;;;;;;;;;15.25;11.50;;;;;25.31;45.75;100787.16;5117119;27;45645;-61
2022/08/25 01:47:39;;;;;;;;;16.00;14.00;;;;;25.22;45.21;100778.16;5119126;27;45422;-59
2022/08/25 01:50:05;;;;;;;;;14.75;12.50;;;;;25.19;45.57;100779.38;5114699;27;45428;-63
2022/08/25 01:52:42;;;;;;;;;15.75;13.75;;;;;25.20;45.45;100783.78;5119168;27;45577;-60
2022/08/25 01:55:07;;;;;;;;;16.50;16.50;;;;;25.12;45.75;100772.91;5118626;27;46410;-61
2022/08/25 01:57:33;;;;;;;;;15.25;15.25;;;;;25.15;45.78;100769.88;5118190;27;45338;-63
2022/08/25 01:59:59;;;;;;;;;13.75;13.75;;;;;25.09;46.05;100773.28;5118945;27;45340;-63
2022/08/25 02:02:24;;;;;;;;;13.00;12.00;;;;;25.06;45.86;100767.34;5118941;27;45415;-63
2022/08/25 02:04:50;;;;;;;;;12.00;12.00;;;;;25.06;45.98;100770.06;5118109;27;46068;-62
2022/08/25 02:07:15;;;;;;;;;15.75;13.00;;;;;25.04;46.35;100767.53;5118719;27;45228;-60
2022/08/25 02:09:41;;;;;;;;;13.00;11.25;;;;;25.01;46.28;100757.00;5118333;27;45304;-59
2022/08/25 02:12:08;;;;;;;;;16.00;16.00;;;;;24.99;46.05;100750.81;5115347;27;45606;-62
2022/08/25 02:14:35;;;;;;;;;15.25;14.00;;;;;24.96;46.05;100751.19;5117450;27;46373;-58
2022/08/25 02:17:03;;;;;;;;;14.75;13.50;;;;;24.96;46.27;100743.88;5118014;27;45879;-62
2022/08/25 02:19:30;;;;;;;;;17.00;17.00;;;;;24.92;46.45;100744.41;5102622;27;45301;-60
2022/08/25 02:21:56;;;;;;;;;13.00;13.00;;;;;24.85;46.49;100737.94;5117500;27;45225;-59
2022/08/25 02:24:21;;;;;;;;;17.00;14.00;;;;;24.88;46.34;100734.91;5117971;27;45256;-61
2022/08/25 02:26:47;;;;;;;;;13.75;13.75;;;;;24.86;46.59;100734.22;5113852;27;45307;-54
2022/08/25 02:29:15;;;;;;;;;16.00;14.25;;;;;24.89;46.52;100739.31;5106659;27;45388;-60
2022/08/25 02:31:41;;;;;;;;;12.50;11.25;;;;;24.82;46.73;100728.28;5118645;27;45258;-61
2022/08/25 02:34:08;;;;;;;;;15.50;12.50;;;;;24.84;46.88;100725.38;5118099;27;45383;-58
2022/08/25 02:36:33;;;;;;;;;17.50;14.75;;;;;24.82;46.72;100716.56;5100780;27;45384;-54
2022/08/25 02:38:59;;;;;;;;;14.00;14.00;;;;;24.78;46.43;100707.06;5113665;27;45309;-56
2022/08/25 02:41:26;;;;;;;;;14.25;14.25;;;;;24.75;46.73;100710.13;5117064;27;45498;-55
2022/08/25 02:43:51;;;;;;;;;13.50;13.50;;;;;24.76;46.63;100717.25;5116762;27;45399;-55
2022/08/25 02:46:19;;;;;;;;;17.00;16.75;;;;;24.71;46.90;100715.03;5117751;27;45338;-59
2022/08/25 02:48:46;;;;;;;;;16.00;16.00;;;;;24.69;46.78;100712.50;5117935;27;45290;-61
2022/08/25 02:51:12;;;;;;;;;16.00;14.67;;;;;24.66;46.90;100712.00;5118353;27;45471;-59
2022/08/25 02:53:39;;;;;;;;;14.75;12.25;;;;;24.63;46.78;100713.22;5117821;27;45523;-61
2022/08/25 02:56:07;;;;;;;;;13.25;11.75;;;;;24.62;46.75;100710.69;5117473;27;45349;-60
2022/08/25 02:58:33;;;;;;;;;14.25;14.25;;;;;24.55;46.59;100705.06;5115431;27;45448;-59
2022/08/25 03:00:58;;;;;;;;;17.00;15.25;;;;;24.55;46.88;100707.78;5117113;27;45550;-63
2022/08/25 03:03:24;;;;;;;;;17.75;12.75;;;;;24.56;46.97;100709.47;5114372;27;45704;-65
2022/08/25 03:05:50;;;;;;;;;15.75;13.50;;;;;24.55;46.76;100713.22;5117689;27;45331;-61
2022/08/25 03:08:16;;;;;;;;;15.33;13.33;;;;;24.46;46.97;100695.22;5117645;27;45361;-60
2022/08/25 03:10:41;;;;;;;;;16.50;14.00;;;;;24.52;46.62;100700.00;5115867;27;45485;-61
2022/08/25 03:13:06;;;;;;;;;15.50;13.25;;;;;24.49;47.20;100708.50;5116817;27;47832;-61
2022/08/25 03:15:32;;;;;;;;;13.75;13.50;;;;;24.48;47.23;100709.53;5117248;27;45564;-58
2022/08/25 03:17:58;;;;;;;;;16.00;14.75;;;;;24.46;46.88;100710.69;5116965;27;45440;-61
2022/08/25 03:20:24;;;;;;;;;16.50;14.75;;;;;24.42;47.08;100716.47;5117281;27;45593;-58
2022/08/25 03:22:50;;;;;;;;;16.00;15.00;;;;;24.40;47.47;100702.22;5117605;27;47097;-56
2022/08/25 03:28:01;;;;;;;;;18.75;15.75;;;;;24.34;47.54;100696.59;5117307;27;45427;-61
2022/08/25 03:30:28;;;;;;;;;18.33;16.00;;;;;24.30;47.65;100692.56;5117967;27;45443;-59
2022/08/25 03:32:53;;;;;;;;;12.67;12.00;;;;;24.26;47.72;100688.47;5113517;27;46278;-60
2022/08/25 03:35:19;;;;;;;;;18.25;16.25;;;;;24.18;48.12;100674.88;5116393;27;45579;-63
2022/08/25 03:37:44;;;;;;;;;13.25;12.00;;;;;24.17;48.06;100678.59;5118021;27;45584;-60
2022/08/25 03:40:13;;;;;;;;;16.33;16.33;;;;;24.12;47.90;100666.41;5116849;27;45657;-61
2022/08/25 03:42:43;;;;;;;;;16.75;15.50;;;;;24.09;48.24;100661.31;5112108;27;48855;-61
2022/08/25 03:45:10;;;;;;;;;15.33;14.67;;;;;24.05;48.50;100662.66;5114529;27;45502;-63
2022/08/25 03:47:37;;;;;;;;;15.00;13.75;;;;;24.01;48.08;100657.75;5117341;27;45411;-64
2022/08/25 03:50:05;;;;;;;;;15.00;13.67;;;;;23.96;48.27;100649.25;5116369;27;45399;-63
2022/08/25 03:52:30;;;;;;;;;17.00;16.33;;;;;23.84;48.00;100640.63;5116800;27;45921;-63
2022/08/25 03:54:56;;;;;;;;;12.75;12.75;;;;;23.87;48.41;100656.56;5117060;27;45768;-61
2022/08/25 03:57:21;;;;;;;;;17.33;16.00;;;;;23.87;48.67;100661.16;5116997;27;45323;-60
2022/08/25 03:59:46;;;;;;;;;13.00;13.00;;;;;23.83;48.50;100655.22;5116654;27;45327;-58
2022/08/25 04:02:12;;;;;;;;;14.00;13.75;;;;;23.83;48.06;100649.78;5115490;27;46993;-62
2022/08/25 04:04:37;;;;;;;;;15.50;15.50;;;;;23.83;48.62;100660.66;5117351;27;45345;-61
2022/08/25 04:07:03;;;;;;;;;17.75;16.50;;;;;23.75;48.61;100658.78;5116711;27;45442;-62
2022/08/25 04:09:28;;;;;;;;;15.00;15.00;;;;;23.76;48.80;100673.19;5101798;27;45308;-56
2022/08/25 04:11:53;;;;;;;;;13.67;13.67;;;;;23.75;48.70;100685.09;5116814;27;46153;-63
2022/08/25 04:14:20;;;;;;;;;16.00;14.67;;;;;23.73;49.02;100682.53;5118361;27;49562;-58
2022/08/25 04:16:45;;;;;;;;;14.75;13.00;;;;;23.71;49.03;100670.16;5116840;27;45453;-58
2022/08/25 04:19:11;;;;;;;;;14.67;14.67;;;;;23.71;48.97;100675.59;5120444;27;45514;-62
2022/08/25 04:21:39;;;;;;;;;15.67;15.00;;;;;23.69;49.22;100683.03;5118774;27;46575;-60
2022/08/25 04:24:07;;;;;;;;;14.00;14.00;;;;;23.67;49.28;100676.91;5118440;27;45495;-62
2022/08/25 04:26:37;;;;;;;;;16.33;15.67;;;;;23.67;48.91;100682.34;5117829;27;45375;-55
2022/08/25 04:29:05;;;;;;;;;18.33;16.67;;;;;23.66;49.41;100686.94;5120281;27;45545;-61
2022/08/25 04:31:31;;;;;;;;;14.00;13.67;;;;;23.61;49.09;100683.88;5119715;27;46231;-60
2022/08/25 04:33:56;;;;;;;;;14.33;13.00;;;;;23.55;49.31;100679.09;5119453;27;45368;-59
2022/08/25 04:36:22;;;;;;;;;13.67;13.00;;;;;23.51;49.57;100689.44;5114128;27;45268;-58
2022/08/25 04:38:48;;;;;;;;;12.67;12.67;;;;;23.46;49.21;100680.09;5120510;27;45448;-61
2022/08/25 04:41:16;;;;;;;;;15.00;12.33;;;;;23.47;49.15;100688.06;5120632;27;46484;-60
2022/08/25 04:43:43;;;;;;;;;15.00;13.67;;;;;23.44;49.59;100693.00;5119221;27;45380;-61
2022/08/25 04:46:15;;;;;;;;;13.75;12.50;;;;;23.42;50.07;100695.84;5118363;27;45316;-56
2022/08/25 04:48:41;;;;;;;;;14.75;13.00;;;;;23.35;49.70;100700.25;5119730;27;45253;-55
2022/08/25 04:51:13;;;;;;;;;14.25;14.00;;;;;23.38;50.00;100705.34;5116988;27;46880;-58
2022/08/25 04:53:39;;;;;;;;;14.00;14.00;;;;;23.36;49.79;100701.13;5118914;27;45681;-57
2022/08/25 04:56:07;;;;;;;;;10.33;9.33;;;;;23.35;49.96;100707.56;5119869;27;45405;-58
2022/08/25 04:58:33;;;;;;;;;14.00;13.33;;;;;23.34;49.73;100717.56;5117704;27;45490;-57
2022/08/25 05:01:08;;;;;;;;;12.75;12.75;;;;;23.33;49.36;100707.72;5118689;27;46004;-61
2022/08/25 05:03:34;;;;;;;;;17.33;12.67;;;;;23.34;50.10;100714.84;5119229;27;45479;-60
2022/08/25 05:06:00;;;;;;;;;14.33;11.33;;;;;23.30;49.70;100718.88;5118717;27;45513;-63
2022/08/25 05:08:25;;;;;;;;;12.50;12.50;;;;;23.34;50.01;100730.28;5118297;27;45436;-58
2022/08/25 05:10:53;;;;;;;;;15.75;14.00;;;;;23.30;49.84;100729.75;5117923;27;45763;-54
2022/08/25 05:13:22;;;;;;;;;13.00;11.33;;;;;23.28;49.93;100729.06;5119445;27;45487;-56
2022/08/25 05:15:56;;;;;;;;;14.00;14.00;;;;;23.26;49.88;100733.81;5117026;27;45593;-60
2022/08/25 05:18:24;;;;;;;;;21.67;16.33;;;;;23.25;49.85;100735.69;5119158;27;45400;-56
2022/08/25 05:20:52;;;;;;;;;18.75;17.50;;;;;23.24;49.54;100741.28;5119054;27;45413;-59
2022/08/25 05:23:19;;;;;;;;;15.67;15.00;;;;;23.22;50.19;100743.31;5118932;27;45318;-55
2022/08/25 05:25:44;;;;;;;;;16.00;14.00;;;;;23.23;49.97;100745.00;5118478;27;45419;-59
2022/08/25 05:28:10;;;;;;;;;15.33;13.00;;;;;23.22;49.98;100743.31;5119388;27;45615;-57
2022/08/25 05:30:41;;;;;;;;;15.33;14.33;;;;;23.23;49.80;100742.28;5118520;27;46905;-58
2022/08/25 05:33:08;;;;;;;;;14.67;13.33;;;;;23.25;49.62;100748.41;5119042;27;45212;-61
2022/08/25 05:35:34;;;;;;;;;15.33;14.00;;;;;23.22;49.92;100746.88;5117300;27;45489;-61
2022/08/25 05:38:00;;;;;;;;;17.33;16.00;;;;;23.21;49.97;100747.88;5119113;27;45637;-61
2022/08/25 05:40:25;;;;;;;;;11.25;11.25;;;;;23.25;50.34;100754.66;5118390;27;45512;-61
2022/08/25 05:42:51;;;;;;;;;16.67;14.33;;;;;23.23;50.27;100745.84;5118704;27;45495;-57
2022/08/25 05:45:16;;;;;;;;;17.33;15.67;;;;;23.25;50.40;100743.81;5119525;27;45617;-58
2022/08/25 05:47:43;;;;;;;;;16.33;14.33;;;;;23.28;50.21;100731.78;5119457;27;45411;-62
2022/08/25 05:50:09;;;;;;;;;22.00;17.67;;;;;23.29;50.45;100744.34;5118190;27;46126;-64
2022/08/25 05:52:34;;;;;;;;;22.67;15.33;;;;;23.30;50.38;100740.59;5118808;27;45280;-65
2022/08/25 05:54:59;;;;;;;;;17.33;16.00;;;;;23.22;50.19;100721.59;5117083;27;45292;-61
2022/08/25 05:57:25;;;;;;;;;19.67;16.33;;;;;23.34;50.31;100735.72;5118907;27;45657;-62
2022/08/25 05:59:50;;;;;;;;;15.33;15.33;;;;;23.33;50.25;100740.28;5113375;27;45590;-63
2022/08/25 06:04:59;;;;;;;;;18.00;17.33;;;;;23.35;50.20;100740.97;5115921;27;45428;-63
2022/08/25 06:07:25;;;;;;;;;17.00;15.33;;;;;23.38;50.52;100737.06;5116922;27;45423;-62
2022/08/25 06:09:50;;;;;;;;;20.00;17.33;;;;;23.40;50.56;100735.88;5118143;27;46022;-62
2022/08/25 06:12:17;;;;;;;;;23.00;16.67;;;;;23.44;50.30;100736.44;5117197;27;45490;-62
2022/08/25 06:14:43;;;;;;;;;16.67;16.67;;;;;23.48;50.38;100741.34;5118005;27;45395;-60
2022/08/25 06:17:09;;;;;;;;;18.67;16.33;;;;;23.53;50.06;100735.41;5118460;27;45735;-61
2022/08/25 06:19:34;;;;;;;;;22.67;18.00;;;;;23.57;50.36;100735.91;5118079;27;45546;-60
2022/08/25 06:22:00;;;;;;;;;18.00;17.00;;;;;23.61;50.39;100731.91;5118090;27;45387;-59
2022/08/25 06:24:27;;;;;;;;;22.67;17.67;;;;;23.64;50.20;100726.97;5118245;27;46578;-61
2022/08/25 06:26:53;;;;;;;;;24.33;18.67;;;;;23.69;50.33;100734.63;5118639;27;45351;-59
2022/08/25 06:29:19;;;;;;;;;19.33;17.00;;;;;23.72;50.12;100729.72;5116646;27;46306;-52
2022/08/25 06:31:45;;;;;;;;;16.33;16.33;;;;;23.75;49.67;100728.53;5117891;27;45374;-61
2022/08/25 06:34:11;;;;;;;;;17.75;16.75;;;;;23.78;49.55;100725.47;5112515;27;45405;-64
2022/08/25 06:36:37;;;;;;;;;18.67;18.67;;;;;23.86;49.76;100739.06;5100961;27;45236;-64
2022/08/25 06:39:03;;;;;;;;;16.00;16.00;;;;;23.89;49.49;100736.00;5115783;27;45903;-60
2022/08/25 06:41:30;;;;;;;;;20.67;15.33;;;;;23.95;49.29;100731.75;5116902;27;45179;-56
2022/08/25 06:43:57;;;;;;;;;17.75;13.25;;;;;24.00;48.96;100732.13;5117799;27;45357;-55
2022/08/25 06:46:28;;;;;;;;;20.00;20.00;;;;;24.06;49.02;100732.28;5118290;27;45435;-54
2022/08/25 06:48:55;;;;;;;;;21.33;17.00;;;;;24.10;49.16;100738.25;5117937;27;46191;-49
2022/08/25 06:51:22;;;;;;;;;23.33;19.00;;;;;24.15;48.73;100735.00;5116776;27;45531;-52
2022/08/25 06:53:48;;;;;;;;;17.75;16.00;;;;;24.22;48.56;100741.44;5116714;27;45469;-57
2022/08/25 06:56:15;;;;;;;;;22.67;20.00;;;;;24.28;48.62;100738.06;5116470;27;45412;-49
2022/08/25 06:58:40;;;;;;;;;14.50;14.50;;;;;24.33;46.69;100741.97;5117318;27;45477;-53
2022/08/25 07:01:12;;;;;;;;;12.00;10.75;;;;;24.38;44.62;100733.31;5115491;27;45762;-57
2022/08/25 07:03:37;;;;;;;;;12.25;11.75;;;;;24.45;41.86;100742.47;5112189;27;45452;-52
2022/08/25 07:06:04;;;;;;;;;9.25;9.25;;;;;24.49;42.68;100741.13;5117482;27;45417;-52
2022/08/25 07:08:29;;;;;;;;;11.25;11.25;;;;;24.58;42.00;100744.66;5117168;27;45241;-51
2022/08/25 07:10:55;;;;;;;;;11.00;9.50;;;;;24.58;41.54;100741.94;5117392;27;45386;-56
2022/08/25 07:13:20;;;;;;;;;10.75;9.50;;;;;24.69;41.29;100749.72;5113874;27;47495;-54
2022/08/25 07:15:46;;;;;;;;;16.75;14.75;;;;;24.76;42.06;100747.19;5117198;27;45575;-57
2022/08/25 07:18:11;;;;;;;;;10.75;10.75;;;;;24.82;41.16;100741.03;5115588;27;45471;-58
2022/08/25 07:20:39;;;;;;;;;11.00;10.00;;;;;24.88;41.77;100743.06;5110539;27;45861;-59
2022/08/25 07:23:05;;;;;;;;;12.00;12.00;;;;;24.95;40.90;100752.22;5117223;27;45477;-60
2022/08/25 07:25:32;;;;;;;;;11.50;11.00;;;;;25.00;40.40;100755.25;5116332;27;45431;-60
2022/08/25 07:27:58;;;;;;;;;9.50;9.50;;;;;25.04;41.05;100755.78;5117443;27;45356;-58
2022/08/25 07:30:23;;;;;;;;;22.50;20.50;;;;;25.04;41.08;100747.63;5115317;27;45479;-56
2022/08/25 07:32:49;;;;;;;;;13.00;11.50;;;;;25.02;40.02;100747.81;5117633;27;45485;-59
2022/08/25 07:35:14;;;;;;;;;12.25;12.25;;;;;25.11;40.66;100754.91;5117410;27;45512;-57
2022/08/25 07:37:50;;;;;;;;;13.00;11.50;;;;;25.15;40.55;100750.81;5111748;27;45384;-57
2022/08/25 07:40:22;;;;;;;;;11.75;11.00;;;;;25.17;40.40;100759.66;5116102;27;45179;-53
2022/08/25 07:42:50;;;;;;;;;10.00;10.00;;;;;25.24;40.98;100746.16;5115337;27;45651;-52
2022/08/25 07:45:16;;;;;;;;;13.25;13.00;;;;;25.25;40.30;100743.25;5116055;27;45235;-56
2022/08/25 07:47:42;;;;;;;;;11.25;11.25;;;;;25.26;40.52;100741.38;5112633;27;45541;-54
2022/08/25 07:50:10;;;;;;;;;12.25;11.50;;;;;25.31;40.65;100744.44;5107930;27;45467;-57
2022/08/25 07:52:36;;;;;;;;;13.00;10.50;;;;;25.32;40.87;100745.28;5116427;27;45445;-57
2022/08/25 07:55:02;;;;;;;;;13.50;11.75;;;;;25.35;40.51;100737.59;5113996;27;45407;-53
2022/08/25 07:57:28;;;;;;;;;12.75;12.75;;;;;25.39;40.72;100738.09;5112344;27;45510;-58
2022/08/25 07:59:54;;;;;;;;;12.75;12.75;;;;;25.43;40.63;100742.16;5116606;27;45363;-57
2022/08/25 08:02:19;;;;;;;;;11.00;10.75;;;;;25.49;40.36;100744.16;5111182;27;45503;-54
2022/08/25 08:04:48;;;;;;;;;13.75;11.00;;;;;25.55;40.26;100735.28;5111409;27;45329;-61
2022/08/25 08:07:16;;;;;;;;;11.00;11.00;;;;;25.64;40.42;100739.63;5109258;27;45734;-56
2022/08/25 08:09:41;;;;;;;;;15.50;13.00;;;;;25.75;41.13;100733.81;5112655;27;45503;-55
2022/08/25 08:12:08;;;;;;;;;10.25;10.25;;;;;25.92;41.00;100733.72;5116337;27;45681;-50
2022/08/25 08:14:33;;;;;;;;;13.25;13.25;;;;;26.05;39.51;100726.63;5116675;27;45422;-49
2022/08/25 08:16:59;;;;;;;;;13.75;12.00;;;;;26.14;40.79;100725.50;5116683;27;46888;-58
2022/08/25 08:19:24;;;;;;;;;18.75;15.75;;;;;26.29;39.66;100730.97;5114156;27;45520;-50
2022/08/25 08:21:50;;;;;;;;;15.00;14.75;;;;;26.33;39.34;100732.31;5116540;27;45456;-55
2022/08/25 08:24:15;;;;;;;;;15.50;13.75;;;;;26.39;39.60;100736.22;5116105;27;45650;-59
2022/08/25 08:26:41;;;;;;;;;14.00;12.00;;;;;26.40;38.94;100749.66;5116222;27;46261;-65
2022/08/25 08:29:06;;;;;;;;;10.50;10.50;;;;;26.41;39.30;100759.53;5116409;27;45357;-60
2022/08/25 08:31:31;;;;;;;;;17.00;13.25;;;;;26.45;39.64;100776.38;5116488;27;45288;-55
2022/08/25 08:33:57;;;;;;;;;16.00;14.50;;;;;26.49;40.29;100757.78;5117223;27;45591;-62
2022/08/25 08:36:24;;;;;;;;;14.25;12.50;;;;;26.64;39.08;100748.56;5114248;27;47433;-55
2022/08/25 08:38:50;;;;;;;;;12.40;10.40;;;;;26.89;38.81;100751.88;5113235;27;45541;-62
2022/08/25 08:44:27;;;;;;;;;11.00;11.00;;;;;27.65;36.46;100766.16;5098770;27;46397;-53
2022/08/25 08:47:41;;;;;;;;;10.60;9.80;;;;;28.09;37.83;100746.81;5106166;27;45626;-60
2022/08/25 08:50:23;;;;;;;;;11.60;10.80;;;;;28.55;37.45;100749.13;5068228;28;45678;-55
2022/08/25 08:52:55;;;;;;;;;12.00;12.00;;;;;28.81;35.50;100756.69;5064323;28;45573;-55
2022/08/25 08:55:43;;;;;;;;;17.00;14.50;;;;;29.11;35.22;100761.94;5091290;27;45474;-57
2022/08/25 08:58:16;;;;;;;;;13.00;13.00;;;;;29.26;35.58;100748.94;5111944;27;46138;-57
2022/08/25 09:00:47;;;;;;;;;15.60;13.40;;;;;29.42;35.85;100756.78;5119096;27;45401;-56
2022/08/25 09:03:25;;;;;;;;;6.60;4.40;;;;;29.50;36.07;100764.03;5116062;27;46378;-60
2022/08/25 09:05:55;;;;;;;;;13.40;13.40;;;;;29.77;36.07;100784.97;5115968;27;45461;-58
2022/08/25 09:08:21;;;;;;;;;14.00;13.40;;;;;29.94;35.42;100771.72;5108895;27;45502;-63
2022/08/25 09:11:12;;;;;;;;;17.25;17.25;;;;;30.15;36.03;100773.47;5106896;27;45431;-62
2022/08/25 09:13:55;;;;;;;;;16.00;14.80;;;;;30.40;35.69;100779.19;5110422;27;46039;-54
2022/08/25 09:16:54;;;;;;;;;11.80;11.80;;;;;30.72;35.97;100772.00;5110636;27;45633;-55
2022/08/25 09:19:48;;;;;;;;;19.20;16.80;;;;;30.91;35.87;100754.66;5110807;27;45422;-54
2022/08/25 09:22:32;;;;;;;;;13.40;13.40;;;;;30.95;35.05;100768.81;5107495;27;45552;-59
2022/08/25 09:25:04;;;;;;;;;13.80;13.00;;;;;30.97;35.29;100773.00;5112351;27;45603;-60
2022/08/25 09:27:51;;;;;;;;;16.40;14.20;;;;;31.09;34.80;100760.31;5110093;27;46080;-57
2022/08/25 09:30:19;;;;;;;;;15.00;11.80;;;;;31.08;34.53;100763.28;5111932;27;46558;-53
2022/08/25 09:32:52;;;;;;;;;18.60;15.40;;;;;30.94;33.09;100767.13;5118846;27;45411;-55
2022/08/25 09:35:27;;;;;;;;;13.80;13.00;;;;;30.80;33.99;100761.66;5110738;27;45335;-58
2022/08/25 09:38:10;;;;;;;;;13.00;11.20;;;;;30.86;35.29;100770.94;5114431;27;45439;-55
2022/08/25 09:40:43;;;;;;;;;14.20;14.20;;;;;31.08;34.41;100758.63;5112083;27;46239;-56
2022/08/25 09:43:27;;;;;;;;;13.60;13.60;;;;;31.32;33.97;100770.00;5117902;27;45441;-59
2022/08/25 09:46:13;;;;;;;;;14.40;13.60;;;;;31.59;32.54;100763.31;5116946;27;46182;-58
2022/08/25 09:48:49;;;;;;;;;14.60;14.60;;;;;31.85;33.07;100764.25;5104800;27;45574;-59
2022/08/25 09:51:28;;;;;;;;;16.80;13.00;;;;;31.92;32.72;100763.16;5112087;27;46170;-56
2022/08/25 09:54:00;;;;;;;;;11.40;9.80;;;;;32.07;33.50;100768.34;5115770;27;45577;-59
2022/08/25 09:56:30;;;;;;;;;14.80;14.80;;;;;31.97;32.21;100766.06;5115218;27;45383;-60
2022/08/25 09:59:21;;;;;;;;;12.00;12.00;;;;;32.06;33.72;100766.66;5110410;27;45506;-62
2022/08/25 10:01:56;;;;;;;;;16.80;15.20;;;;;32.14;33.38;100762.75;5117751;27;45533;-63
2022/08/25 10:04:32;;;;;;;;;12.00;12.00;;;;;32.02;31.18;100770.88;5111702;27;45440;-59
2022/08/25 10:07:00;;;;;;;;;9.20;9.20;;;;;31.88;32.89;100759.13;5116956;27;45482;-63
2022/08/25 10:09:41;;;;;;;;;14.20;11.40;;;;;31.93;31.77;100753.00;5117309;27;45513;-56
2022/08/25 10:12:19;;;;;;;;;13.60;10.80;;;;;31.83;33.73;100760.88;5100615;27;46251;-60
2022/08/25 10:14:46;;;;;;;;;11.00;9.80;;;;;31.66;32.51;100753.13;5117773;27;45358;-64
2022/08/25 10:17:23;;;;;;;;;8.80;8.80;;;;;31.51;31.67;100746.22;5118377;27;45712;-62
2022/08/25 10:19:52;;;;;;;;;10.00;10.00;;;;;31.36;32.34;100746.50;5118138;27;45307;-59
2022/08/25 10:22:31;;;;;;;;;11.00;11.00;;;;;31.15;32.60;100741.28;5116194;27;46317;-59
2022/08/25 10:24:59;;;;;;;;;10.20;8.00;;;;;30.85;33.68;100741.78;5112272;27;45853;-60
2022/08/25 10:27:37;;;;;;;;;11.60;10.20;;;;;30.63;32.36;100745.88;5117764;27;45474;-61
2022/08/25 10:30:15;;;;;;;;;13.80;12.80;;;;;30.38;32.48;100734.66;5117684;27;45336;-59
2022/08/25 10:33:23;;;;;;;;;9.40;9.40;;;;;30.15;34.27;100729.59;5117745;27;45456;-60
2022/08/25 10:36:16;;;;;;;;;10.60;9.40;;;;;30.09;34.21;100724.97;5116797;27;45398;-59
2022/08/25 10:38:46;;;;;;;;;20.00;20.00;;;;;29.98;33.42;100717.31;5114085;27;45462;-61
2022/08/25 10:41:21;;;;;;;;;12.20;12.20;;;;;29.91;34.91;100712.66;5107320;27;45587;-60
2022/08/25 10:45:41;;;;;;;;;12.40;10.20;;;;;29.83;33.36;100714.78;5104197;27;46118;-59
2022/08/25 10:47:15;;;;;;;;;11.80;11.80;;;;;29.78;34.17;100698.09;5116328;27;45444;-57
2022/08/25 10:49:46;;;;;;;;;10.20;10.20;;;;;29.74;33.90;100700.41;5114040;27;45321;-57
2022/08/25 10:52:20;;;;;;;;;12.40;11.00;;;;;29.71;34.60;100702.75;5115983;27;45326;-59
2022/08/25 10:54:53;;;;;;;;;14.00;11.60;;;;;29.81;35.49;100706.75;5116896;27;46369;-60
2022/08/25 10:57:34;;;;;;;;;12.20;10.40;;;;;29.87;34.47;100707.81;5116901;27;45376;-59
2022/08/25 11:00:05;;;;;;;;;10.60;10.60;;;;;29.90;33.50;100708.25;5114950;27;45454;-59
2022/08/25 11:02:48;;;;;;;;;12.80;12.40;;;;;29.93;34.48;100702.31;5114834;27;45490;-59
2022/08/25 11:05:38;;;;;;;;;11.60;10.60;;;;;29.93;34.74;100694.09;5112021;27;45230;-59
2022/08/25 11:08:21;;;;;;;;;10.40;10.40;;;;;29.93;32.57;100701.47;5106470;27;45454;-59
2022/08/25 11:10:53;;;;;;;;;9.40;9.40;;;;;29.96;32.99;100701.09;5105629;27;45505;-59
2022/08/25 11:13:38;;;;;;;;;14.40;12.80;;;;;30.01;33.15;100698.53;5102271;27;45273;-58
2022/08/25 11:16:14;;;;;;;;;13.20;10.00;;;;;30.11;33.23;100701.75;5114750;27;45436;-60
2022/08/25 11:19:12;;;;;;;;;10.60;10.40;;;;;30.18;33.22;100705.31;5116236;27;45280;-59
2022/08/25 11:21:50;;;;;;;;;10.40;10.40;;;;;30.20;32.99;100710.59;5108041;27;45521;-58
2022/08/25 11:24:39;;;;;;;;;12.80;10.20;;;;;30.25;32.70;100710.81;5115798;27;45421;-73
2022/08/25 11:27:12;;;;;;;;;10.80;10.20;;;;;30.41;32.28;100704.03;5111627;27;46056;-69
2022/08/25 11:29:38;;;;;;;;;13.40;11.60;;;;;30.47;32.09;100703.19;5102392;27;45434;-68